createdAt,value
2022-12-23T00:00:32.740Z,10.01
2022-12-23T00:01:32.763Z,9.99
2022-12-23T00:02:32.841Z,9.99
2022-12-23T00:03:32.902Z,10.02
2022-12-23T00:04:32.690Z,10.01
2022-12-23T00:05:37.541Z,10.01
2022-12-23T00:06:32.669Z,10.02
2022-12-23T00:07:32.671Z,10.01
2022-12-23T00:08:32.645Z,10.01
2022-12-23T00:09:32.641Z,10.02
2022-12-23T00:10:32.653Z,10.04
2022-12-23T00:11:32.612Z,10.04
2022-12-23T00:12:32.613Z,10.02
2022-12-23T00:13:32.591Z,10.01
2022-12-23T00:14:32.598Z,9.99
2022-12-23T00:15:32.567Z,9.99
2022-12-23T00:16:32.583Z,9.99
2022-12-23T00:17:32.555Z,10.01
2022-12-23T00:18:32.555Z,10.01
2022-12-23T00:19:32.549Z,9.99
2022-12-23T00:20:32.518Z,9.99
2022-12-23T00:21:32.504Z,9.99
2022-12-23T00:22:32.503Z,10.01
2022-12-23T00:23:32.479Z,10.01
2022-12-23T00:24:38.514Z,10.01
2022-12-23T00:25:32.465Z,10.01
2022-12-23T00:26:32.460Z,9.99
2022-12-23T00:27:37.368Z,9.99
2022-12-23T00:28:32.455Z,9.99
2022-12-23T00:29:32.420Z,9.98
2022-12-23T00:30:32.417Z,9.99
2022-12-23T00:31:32.485Z,9.98
2022-12-23T00:32:32.394Z,9.98
2022-12-23T00:33:32.380Z,9.99
2022-12-23T00:34:32.373Z,9.98
2022-12-23T00:35:32.353Z,9.96
2022-12-23T00:36:32.453Z,9.96
2022-12-23T00:37:32.342Z,9.96
2022-12-23T00:38:32.317Z,9.96
2022-12-23T00:39:32.314Z,9.98
2022-12-23T00:40:32.306Z,9.96
2022-12-23T00:41:32.282Z,9.99
2022-12-23T00:42:32.285Z,9.98
2022-12-23T00:43:32.273Z,9.99
2022-12-23T00:44:32.270Z,10.01
2022-12-23T00:45:32.296Z,10.01
2022-12-23T00:46:32.296Z,10.04
2022-12-23T00:47:32.232Z,10.02
2022-12-23T00:48:32.212Z,10.02
2022-12-23T00:49:32.227Z,10.01
2022-12-23T00:50:32.190Z,10.01
2022-12-23T00:51:32.168Z,9.98
2022-12-23T00:52:32.166Z,9.99
2022-12-23T00:53:32.166Z,9.99
2022-12-23T00:54:32.148Z,9.99
2022-12-23T00:55:32.131Z,10.01
2022-12-23T00:56:32.121Z,9.99
2022-12-23T00:57:32.121Z,10.01
2022-12-23T00:58:32.149Z,10.01
2022-12-23T00:59:32.101Z,10.01
2022-12-23T01:00:32.076Z,9.99
2022-12-23T01:01:32.242Z,9.99
2022-12-23T01:02:32.146Z,9.98
2022-12-23T01:03:32.122Z,9.98
2022-12-23T01:04:32.048Z,9.98
2022-12-23T01:05:32.025Z,9.95
2022-12-23T01:06:32.041Z,9.95
2022-12-23T01:07:32.003Z,9.95
2022-12-23T01:08:32.001Z,9.93
2022-12-23T01:09:31.984Z,9.96
2022-12-23T01:10:31.980Z,9.96
2022-12-23T01:11:31.947Z,9.98
2022-12-23T01:12:31.950Z,9.98
2022-12-23T01:13:31.943Z,9.96
2022-12-23T01:14:31.950Z,9.96
2022-12-23T01:15:31.919Z,9.95
2022-12-23T01:16:31.965Z,9.96
2022-12-23T01:17:31.881Z,9.98
2022-12-23T01:18:31.891Z,9.98
2022-12-23T01:19:31.876Z,9.99
2022-12-23T01:20:31.853Z,9.98
2022-12-23T01:21:31.841Z,9.99
2022-12-23T01:22:31.845Z,10.01
2022-12-23T01:23:31.824Z,10.01
2022-12-23T01:24:31.806Z,9.99
2022-12-23T01:25:31.797Z,9.98
2022-12-23T01:26:31.788Z,9.98
2022-12-23T01:27:31.781Z,9.98
2022-12-23T01:28:31.779Z,9.96
2022-12-23T01:29:31.756Z,9.98
2022-12-23T01:30:31.753Z,9.98
2022-12-23T01:31:31.832Z,9.99
2022-12-23T01:32:31.732Z,9.98
2022-12-23T01:33:31.714Z,9.98
2022-12-23T01:34:36.645Z,9.96
2022-12-23T01:35:31.696Z,9.95
2022-12-23T01:36:31.693Z,9.95
2022-12-23T01:37:31.677Z,9.96
2022-12-23T01:38:31.665Z,9.96
2022-12-23T01:39:31.645Z,9.96
2022-12-23T01:40:31.633Z,9.95
2022-12-23T01:41:31.635Z,9.95
2022-12-23T01:42:31.615Z,9.93
2022-12-23T01:43:31.612Z,9.95
2022-12-23T01:44:31.593Z,9.93
2022-12-23T01:45:31.630Z,9.95
2022-12-23T01:46:31.711Z,9.95
2022-12-23T01:47:31.565Z,9.96
2022-12-23T01:48:31.556Z,9.98
2022-12-23T01:49:31.535Z,9.98
2022-12-23T01:50:31.526Z,9.96
2022-12-23T01:51:31.619Z,9.96
2022-12-23T01:52:31.510Z,9.98
2022-12-23T01:53:31.515Z,9.96
2022-12-23T01:54:31.479Z,9.95
2022-12-23T01:55:31.479Z,9.96
2022-12-23T01:56:31.578Z,9.96
2022-12-23T01:57:31.437Z,9.95
2022-12-23T01:58:31.469Z,9.95
2022-12-23T01:59:31.427Z,9.96
2022-12-23T02:00:31.413Z,9.95
2022-12-23T02:01:31.644Z,9.95
2022-12-23T02:02:31.533Z,9.95
2022-12-23T02:03:31.456Z,9.96
2022-12-23T02:04:31.386Z,9.95
2022-12-23T02:05:31.351Z,9.98
2022-12-23T02:06:31.346Z,9.95
2022-12-23T02:07:31.334Z,9.96
2022-12-23T02:08:31.327Z,9.96
2022-12-23T02:09:31.334Z,9.96
2022-12-23T02:10:31.316Z,10.01
2022-12-23T02:11:31.284Z,9.99
2022-12-23T02:12:31.285Z,9.99
2022-12-23T02:13:31.275Z,9.99
2022-12-23T02:14:31.272Z,9.98
2022-12-23T02:15:31.256Z,9.98
2022-12-23T02:16:31.347Z,9.98
2022-12-23T02:17:31.220Z,9.96
2022-12-23T02:18:31.214Z,9.96
2022-12-23T02:19:31.211Z,9.99
2022-12-23T02:20:31.191Z,10.01
2022-12-23T02:21:31.285Z,9.99
2022-12-23T02:22:31.175Z,9.99
2022-12-23T02:23:31.153Z,10.02
2022-12-23T02:24:31.157Z,10.02
2022-12-23T02:25:31.149Z,10.01
2022-12-23T02:26:31.134Z,9.98
2022-12-23T02:27:31.113Z,9.99
2022-12-23T02:28:31.106Z,10.01
2022-12-23T02:29:31.110Z,9.99
2022-12-23T02:30:31.120Z,10.01
2022-12-23T02:31:31.117Z,10.01
2022-12-23T02:32:31.079Z,9.99
2022-12-23T02:33:31.044Z,10.01
2022-12-23T02:34:31.045Z,10.01
2022-12-23T02:35:31.028Z,10.02
2022-12-23T02:36:31.014Z,10.04
2022-12-23T02:37:30.999Z,10.02
2022-12-23T02:38:30.994Z,10.02
2022-12-23T02:39:31.015Z,10.02
2022-12-23T02:40:30.977Z,10.04
2022-12-23T02:41:30.965Z,10.02
2022-12-23T02:42:30.960Z,9.99
2022-12-23T02:43:30.937Z,10.01
2022-12-23T02:44:30.935Z,9.99
2022-12-23T02:45:30.910Z,9.99
2022-12-23T02:46:31.064Z,10.01
2022-12-23T02:47:30.893Z,9.99
2022-12-23T02:48:30.876Z,10.02
2022-12-23T02:49:30.876Z,10.01
2022-12-23T02:50:30.875Z,10.01
2022-12-23T02:51:30.842Z,10.01
2022-12-23T02:52:30.867Z,10.02
2022-12-23T02:53:30.828Z,10.02
2022-12-23T02:54:30.832Z,10.04
2022-12-23T02:55:30.801Z,10.04
2022-12-23T02:56:30.850Z,10.02
2022-12-23T02:57:30.787Z,10.04
2022-12-23T02:58:30.770Z,10.04
2022-12-23T02:59:30.770Z,10.04
2022-12-23T03:00:30.750Z,10.04
2022-12-23T03:01:30.810Z,10.06
2022-12-23T03:02:30.897Z,10.04
2022-12-23T03:03:30.745Z,10.04
2022-12-23T03:04:30.727Z,10.01
2022-12-23T03:05:30.692Z,10.01
2022-12-23T03:06:30.719Z,10.02
2022-12-23T03:07:30.666Z,10.04
2022-12-23T03:08:30.661Z,10.02
2022-12-23T03:09:30.653Z,10.06
2022-12-23T03:10:30.639Z,10.07
2022-12-23T03:11:30.623Z,10.06
2022-12-23T03:12:30.615Z,10.06
2022-12-23T03:13:30.601Z,10.06
2022-12-23T03:14:30.610Z,10.04
2022-12-23T03:15:30.626Z,10.04
2022-12-23T03:16:30.619Z,10.04
2022-12-23T03:17:30.565Z,10.02
2022-12-23T03:18:30.553Z,10.02
2022-12-23T03:19:30.542Z,10.02
2022-12-23T03:20:30.533Z,10.04
2022-12-23T03:21:30.516Z,10.04
2022-12-23T03:22:30.510Z,10.02
2022-12-23T03:23:30.495Z,10.04
2022-12-23T03:24:30.520Z,10.04
2022-12-23T03:25:30.482Z,10.04
2022-12-23T03:26:30.467Z,10.07
2022-12-23T03:27:30.452Z,10.06
2022-12-23T03:28:30.434Z,10.06
2022-12-23T03:29:30.434Z,10.06
2022-12-23T03:30:30.424Z,10.06
2022-12-23T03:31:30.534Z,10.04
2022-12-23T03:32:30.410Z,10.04
2022-12-23T03:33:30.383Z,10.06
2022-12-23T03:34:30.372Z,10.09
2022-12-23T03:35:30.379Z,10.09
2022-12-23T03:36:30.348Z,10.09
2022-12-23T03:37:30.343Z,10.10
2022-12-23T03:38:30.340Z,10.10
2022-12-23T03:39:30.336Z,10.10
2022-12-23T03:40:30.321Z,10.10
2022-12-23T03:41:30.305Z,10.11
2022-12-23T03:42:30.333Z,10.11
2022-12-23T03:43:30.287Z,10.13
2022-12-23T03:44:30.263Z,10.10
2022-12-23T03:45:39.862Z,10.11
2022-12-23T03:46:30.321Z,10.10
2022-12-23T03:47:30.241Z,10.11
2022-12-23T03:48:30.218Z,10.11
2022-12-23T03:49:30.205Z,10.13
2022-12-23T03:50:30.209Z,10.11
2022-12-23T03:51:30.209Z,10.11
2022-12-23T03:52:30.167Z,10.11
2022-12-23T03:53:30.173Z,10.09
2022-12-23T03:54:30.148Z,10.11
2022-12-23T03:55:30.156Z,10.13
2022-12-23T03:56:30.136Z,10.14
2022-12-23T03:57:30.130Z,10.11
2022-12-23T03:58:30.110Z,10.11
2022-12-23T03:59:30.100Z,10.11
2022-12-23T04:00:30.094Z,10.11
2022-12-23T04:01:30.193Z,10.10
2022-12-23T04:02:30.176Z,10.11
2022-12-23T04:03:30.085Z,10.10
2022-12-23T04:04:30.036Z,10.09
2022-12-23T04:05:30.047Z,10.10
2022-12-23T04:06:30.013Z,10.11
2022-12-23T04:07:30.009Z,10.11
2022-12-23T04:08:30.017Z,10.09
2022-12-23T04:09:29.995Z,10.06
2022-12-23T04:10:29.978Z,10.04
2022-12-23T04:11:29.970Z,10.04
2022-12-23T04:12:29.946Z,10.02
2022-12-23T04:13:29.948Z,10.04
2022-12-23T04:14:29.926Z,10.06
2022-12-23T04:15:29.929Z,10.06
2022-12-23T04:16:29.933Z,10.07
2022-12-23T04:17:29.896Z,10.06
2022-12-23T04:18:29.880Z,10.04
2022-12-23T04:19:29.892Z,10.04
2022-12-23T04:20:29.867Z,10.04
2022-12-23T04:21:29.859Z,10.06
2022-12-23T04:22:29.844Z,10.04
2022-12-23T04:23:29.833Z,10.02
2022-12-23T04:24:29.838Z,10.01
2022-12-23T04:25:29.815Z,10.01
2022-12-23T04:26:29.802Z,10.01
2022-12-23T04:27:29.788Z,9.99
2022-12-23T04:28:29.770Z,10.01
2022-12-23T04:29:29.759Z,10.01
2022-12-23T04:30:34.349Z,10.02
2022-12-23T04:31:29.801Z,10.02
2022-12-23T04:32:29.729Z,10.04
2022-12-23T04:33:29.719Z,10.02
2022-12-23T04:34:29.717Z,10.04
2022-12-23T04:35:29.704Z,10.07
2022-12-23T04:36:29.701Z,10.07
2022-12-23T04:37:29.686Z,10.06
2022-12-23T04:38:29.667Z,10.06
2022-12-23T04:39:29.653Z,10.06
2022-12-23T04:40:29.657Z,10.04
2022-12-23T04:41:29.629Z,10.04
2022-12-23T04:42:29.621Z,10.04
2022-12-23T04:43:29.621Z,10.06
2022-12-23T04:44:29.629Z,10.04
2022-12-23T04:45:29.597Z,10.04
2022-12-23T04:46:29.663Z,10.02
2022-12-23T04:47:29.559Z,10.04
2022-12-23T04:48:29.563Z,10.04
2022-12-23T04:49:29.542Z,10.02
2022-12-23T04:50:29.543Z,10.02
2022-12-23T04:51:29.532Z,10.01
2022-12-23T04:52:29.511Z,9.99
2022-12-23T04:53:29.505Z,10.01
2022-12-23T04:54:29.489Z,10.01
2022-12-23T04:55:29.501Z,9.99
2022-12-23T04:56:29.464Z,9.99
2022-12-23T04:57:29.457Z,10.01
2022-12-23T04:58:29.444Z,9.99
2022-12-23T04:59:29.430Z,9.98
2022-12-23T05:00:32.720Z,9.99
2022-12-23T05:01:29.570Z,10.01
2022-12-23T05:02:29.531Z,9.98
2022-12-23T05:03:29.473Z,9.99
2022-12-23T05:04:29.439Z,9.98
2022-12-23T05:05:29.362Z,9.98
2022-12-23T05:06:29.371Z,9.96
2022-12-23T05:07:29.337Z,9.96
2022-12-23T05:08:29.345Z,10.01
2022-12-23T05:09:29.321Z,9.99
2022-12-23T05:10:29.311Z,10.01
2022-12-23T05:11:29.306Z,10.01
2022-12-23T05:12:29.299Z,10.01
2022-12-23T05:13:29.273Z,9.99
2022-12-23T05:14:29.270Z,9.99
2022-12-23T05:15:29.283Z,9.98
2022-12-23T05:16:29.289Z,9.96
2022-12-23T05:17:29.227Z,9.96
2022-12-23T05:18:29.237Z,9.96
2022-12-23T05:19:29.208Z,9.95
2022-12-23T05:20:29.199Z,9.98
2022-12-23T05:21:29.196Z,9.95
2022-12-23T05:22:29.177Z,9.95
2022-12-23T05:23:29.165Z,9.95
2022-12-23T05:24:29.172Z,9.95
2022-12-23T05:25:29.140Z,9.95
2022-12-23T05:26:29.143Z,9.95
2022-12-23T05:27:29.127Z,9.93
2022-12-23T05:28:29.117Z,9.93
2022-12-23T05:29:29.100Z,9.93
2022-12-23T05:30:29.091Z,9.91
2022-12-23T05:31:29.105Z,9.92
2022-12-23T05:32:29.066Z,9.91
2022-12-23T05:33:29.080Z,9.91
2022-12-23T05:34:29.043Z,9.92
2022-12-23T05:35:29.026Z,9.92
2022-12-23T05:36:29.034Z,9.91
2022-12-23T05:37:29.010Z,9.91
2022-12-23T05:38:29.013Z,9.89
2022-12-23T05:39:28.987Z,9.91
2022-12-23T05:40:30.388Z,9.89
2022-12-23T05:41:28.984Z,9.91
2022-12-23T05:42:28.969Z,9.89
2022-12-23T05:43:28.945Z,9.88
2022-12-23T05:44:28.932Z,9.88
2022-12-23T05:45:28.973Z,9.91
2022-12-23T05:46:28.983Z,9.88
2022-12-23T05:47:28.916Z,9.86
2022-12-23T05:48:28.896Z,9.88
2022-12-23T05:49:28.879Z,9.89
2022-12-23T05:50:28.871Z,9.88
2022-12-23T05:51:28.891Z,9.86
2022-12-23T05:52:28.852Z,9.88
2022-12-23T05:53:28.836Z,9.86
2022-12-23T05:54:28.850Z,9.86
2022-12-23T05:55:28.807Z,9.83
2022-12-23T05:56:28.822Z,9.83
2022-12-23T05:57:28.827Z,9.83
2022-12-23T05:58:28.789Z,9.83
2022-12-23T05:59:31.250Z,9.83
2022-12-23T06:00:28.776Z,9.81
2022-12-23T06:01:28.819Z,9.81
2022-12-23T06:02:28.866Z,9.80
2022-12-23T06:03:28.915Z,9.81
2022-12-23T06:04:28.764Z,9.80
2022-12-23T06:05:28.699Z,9.80
2022-12-23T06:06:28.735Z,9.80
2022-12-23T06:07:28.678Z,9.77
2022-12-23T06:08:28.674Z,9.75
2022-12-23T06:09:28.656Z,9.78
2022-12-23T06:10:28.647Z,9.77
2022-12-23T06:11:29.582Z,9.75
2022-12-23T06:12:28.685Z,9.75
2022-12-23T06:13:28.607Z,9.75
2022-12-23T06:14:29.527Z,9.77
2022-12-23T06:15:28.603Z,9.74
2022-12-23T06:16:28.611Z,9.74
2022-12-23T06:17:28.576Z,9.75
2022-12-23T06:18:28.586Z,9.74
2022-12-23T06:19:28.545Z,9.74
2022-12-23T06:20:28.545Z,9.73
2022-12-23T06:21:28.534Z,9.70
2022-12-23T06:22:28.521Z,9.68
2022-12-23T06:23:28.500Z,9.68
2022-12-23T06:24:28.503Z,9.68
2022-12-23T06:25:28.502Z,9.68
2022-12-23T06:26:28.479Z,9.67
2022-12-23T06:27:28.470Z,9.68
2022-12-23T06:28:28.448Z,9.65
2022-12-23T06:29:28.436Z,9.65
2022-12-23T06:30:28.430Z,9.65
2022-12-23T06:31:28.517Z,9.63
2022-12-23T06:32:31.602Z,9.63
2022-12-23T06:33:28.404Z,9.65
2022-12-23T06:34:28.384Z,9.65
2022-12-23T06:35:28.369Z,9.67
2022-12-23T06:36:34.665Z,9.67
2022-12-23T06:37:28.473Z,9.67
2022-12-23T06:38:28.339Z,9.68
2022-12-23T06:39:28.335Z,9.67
2022-12-23T06:40:28.316Z,9.65
2022-12-23T06:41:28.305Z,9.67
2022-12-23T06:42:28.298Z,9.67
2022-12-23T06:43:28.280Z,9.68
2022-12-23T06:44:28.282Z,9.67
2022-12-23T06:45:28.259Z,9.67
2022-12-23T06:46:28.369Z,9.65
2022-12-23T06:47:28.339Z,9.65
2022-12-23T06:48:28.275Z,9.65
2022-12-23T06:49:28.305Z,9.67
2022-12-23T06:50:28.304Z,9.68
2022-12-23T06:51:28.198Z,9.67
2022-12-23T06:52:28.196Z,9.65
2022-12-23T06:53:28.172Z,9.65
2022-12-23T06:54:28.248Z,9.63
2022-12-23T06:55:28.201Z,9.65
2022-12-23T06:56:28.142Z,9.63
2022-12-23T06:57:28.138Z,9.65
2022-12-23T06:58:28.113Z,9.65
2022-12-23T06:59:28.103Z,9.67
2022-12-23T07:00:28.085Z,9.67
2022-12-23T07:01:28.275Z,9.68
2022-12-23T07:02:28.214Z,9.68
2022-12-23T07:03:28.251Z,9.70
2022-12-23T07:04:28.043Z,9.70
2022-12-23T07:05:34.902Z,9.70
2022-12-23T07:06:28.031Z,9.67
2022-12-23T07:07:28.023Z,9.68
2022-12-23T07:08:28.008Z,9.68
2022-12-23T07:09:28.006Z,9.68
2022-12-23T07:10:27.978Z,9.70
2022-12-23T07:11:27.975Z,9.68
2022-12-23T07:12:27.967Z,9.70
2022-12-23T07:13:27.954Z,9.68
2022-12-23T07:14:27.931Z,9.68
2022-12-23T07:15:27.932Z,9.68
2022-12-23T07:16:27.932Z,9.67
2022-12-23T07:17:27.916Z,9.65
2022-12-23T07:18:27.890Z,9.63
2022-12-23T07:19:27.880Z,9.65
2022-12-23T07:20:28.014Z,9.63
2022-12-23T07:21:29.795Z,9.65
2022-12-23T07:22:27.867Z,9.65
2022-12-23T07:23:27.840Z,9.65
2022-12-23T07:24:27.824Z,9.62
2022-12-23T07:25:27.815Z,9.63
2022-12-23T07:26:27.801Z,9.62
2022-12-23T07:27:27.818Z,9.60
2022-12-23T07:28:27.780Z,9.60
2022-12-23T07:29:27.765Z,9.60
2022-12-23T07:30:27.832Z,9.59
2022-12-23T07:31:27.777Z,9.59
2022-12-23T07:32:27.732Z,9.58
2022-12-23T07:33:27.756Z,9.59
2022-12-23T07:34:27.744Z,9.59
2022-12-23T07:35:27.702Z,9.59
2022-12-23T07:36:27.691Z,9.59
2022-12-23T07:37:27.713Z,9.59
2022-12-23T07:38:27.691Z,9.58
2022-12-23T07:39:27.666Z,9.59
2022-12-23T07:40:27.734Z,9.58
2022-12-23T07:41:27.639Z,9.58
2022-12-23T07:42:45.145Z,9.58
2022-12-23T07:43:27.628Z,9.56
2022-12-23T07:44:27.600Z,9.58
2022-12-23T07:45:27.699Z,9.58
2022-12-23T07:46:27.677Z,9.58
2022-12-23T07:47:27.580Z,9.58
2022-12-23T07:48:27.621Z,9.56
2022-12-23T07:49:27.561Z,9.56
2022-12-23T07:50:27.683Z,9.58
2022-12-23T07:51:27.525Z,9.58
2022-12-23T07:52:27.520Z,9.58
2022-12-23T07:53:27.517Z,9.58
2022-12-23T07:54:27.486Z,9.56
2022-12-23T07:55:27.484Z,9.59
2022-12-23T07:56:27.467Z,9.58
2022-12-23T07:57:27.467Z,9.58
2022-12-23T07:58:27.477Z,9.59
2022-12-23T07:59:27.465Z,9.59
2022-12-23T08:00:27.421Z,9.58
2022-12-23T08:01:27.504Z,9.58
2022-12-23T08:02:27.588Z,9.58
2022-12-23T08:03:27.471Z,9.58
2022-12-23T08:04:27.430Z,9.56
2022-12-23T08:05:27.436Z,9.55
2022-12-23T08:06:27.357Z,9.58
2022-12-23T08:07:27.349Z,9.53
2022-12-23T08:08:27.345Z,9.55
2022-12-23T08:09:27.329Z,9.53
2022-12-23T08:10:27.312Z,9.55
2022-12-23T08:11:27.308Z,9.56
2022-12-23T08:12:27.297Z,9.58
2022-12-23T08:13:27.301Z,9.59
2022-12-23T08:14:27.266Z,9.59
2022-12-23T08:15:27.264Z,9.59
2022-12-23T08:16:27.326Z,9.59
2022-12-23T08:17:27.241Z,9.58
2022-12-23T08:18:27.235Z,9.56
2022-12-23T08:19:27.214Z,9.56
2022-12-23T08:20:27.200Z,9.55
2022-12-23T08:21:27.195Z,9.53
2022-12-23T08:22:27.179Z,9.52
2022-12-23T08:23:27.183Z,9.52
2022-12-23T08:24:27.158Z,9.52
2022-12-23T08:25:27.153Z,9.52
2022-12-23T08:26:27.133Z,9.52
2022-12-23T08:27:27.130Z,9.52
2022-12-23T08:28:27.131Z,9.52
2022-12-23T08:29:29.967Z,9.50
2022-12-23T08:30:27.108Z,9.52
2022-12-23T08:31:27.153Z,9.49
2022-12-23T08:32:27.075Z,9.50
2022-12-23T08:33:27.066Z,9.49
2022-12-23T08:34:27.057Z,9.48
2022-12-23T08:35:27.034Z,9.48
2022-12-23T08:36:27.033Z,9.49
2022-12-23T08:37:27.010Z,9.49
2022-12-23T08:38:27.010Z,9.49
2022-12-23T08:39:26.997Z,9.48
2022-12-23T08:40:26.982Z,9.48
2022-12-23T08:41:26.994Z,9.48
2022-12-23T08:42:26.965Z,9.45
2022-12-23T08:43:33.617Z,9.45
2022-12-23T08:44:26.957Z,9.49
2022-12-23T08:45:26.921Z,9.49
2022-12-23T08:46:26.998Z,9.50
2022-12-23T08:47:26.900Z,9.50
2022-12-23T08:48:26.893Z,9.52
2022-12-23T08:49:26.908Z,9.50
2022-12-23T08:50:26.878Z,9.52
2022-12-23T08:51:26.861Z,9.52
2022-12-23T08:52:26.850Z,9.50
2022-12-23T08:53:26.844Z,9.52
2022-12-23T08:54:26.845Z,9.50
2022-12-23T08:55:26.812Z,9.50
2022-12-23T08:56:26.810Z,9.52
2022-12-23T08:57:26.792Z,9.53
2022-12-23T08:58:26.794Z,9.53
2022-12-23T08:59:26.774Z,9.53
2022-12-23T09:00:26.775Z,9.50
2022-12-23T09:01:26.997Z,9.53
2022-12-23T09:02:26.960Z,9.55
2022-12-23T09:03:26.887Z,9.56
2022-12-23T09:04:26.742Z,9.58
2022-12-23T09:05:26.701Z,9.59
2022-12-23T09:06:29.587Z,9.59
2022-12-23T09:07:26.682Z,9.60
2022-12-23T09:08:26.670Z,9.60
2022-12-23T09:09:26.667Z,9.62
2022-12-23T09:10:26.680Z,9.62
2022-12-23T09:11:26.636Z,9.62
2022-12-23T09:12:26.635Z,9.62
2022-12-23T09:13:34.846Z,9.63
2022-12-23T09:14:26.621Z,9.63
2022-12-23T09:15:26.590Z,9.63
2022-12-23T09:16:26.640Z,9.63
2022-12-23T09:17:26.620Z,9.62
2022-12-23T09:18:26.577Z,9.62
2022-12-23T09:19:26.565Z,9.63
2022-12-23T09:20:26.543Z,9.65
2022-12-23T09:21:26.531Z,9.67
2022-12-23T09:22:26.528Z,9.65
2022-12-23T09:23:26.510Z,9.63
2022-12-23T09:24:26.519Z,9.65
2022-12-23T09:25:26.484Z,9.65
2022-12-23T09:26:26.474Z,9.63
2022-12-23T09:27:26.478Z,9.67
2022-12-23T09:28:26.448Z,9.70
2022-12-23T09:29:26.449Z,9.68
2022-12-23T09:30:26.434Z,9.70
2022-12-23T09:31:32.286Z,9.67
2022-12-23T09:32:26.415Z,9.68
2022-12-23T09:33:26.392Z,9.70
2022-12-23T09:34:26.392Z,9.70
2022-12-23T09:35:26.368Z,9.71
2022-12-23T09:36:26.363Z,9.73
2022-12-23T09:37:26.356Z,9.74
2022-12-23T09:38:26.336Z,9.75
2022-12-23T09:39:26.340Z,9.74
2022-12-23T09:40:26.318Z,9.73
2022-12-23T09:41:26.308Z,9.70
2022-12-23T09:42:26.294Z,9.68
2022-12-23T09:43:26.283Z,9.67
2022-12-23T09:44:26.300Z,9.71
2022-12-23T09:45:26.262Z,9.70
2022-12-23T09:46:26.279Z,9.68
2022-12-23T09:47:26.245Z,9.68
2022-12-23T09:48:26.232Z,9.70
2022-12-23T09:49:26.249Z,9.73
2022-12-23T09:50:26.218Z,9.74
2022-12-23T09:51:26.208Z,9.71
2022-12-23T09:52:26.188Z,9.71
2022-12-23T09:53:26.172Z,9.67
2022-12-23T09:54:26.190Z,9.67
2022-12-23T09:55:26.155Z,9.68
2022-12-23T09:56:26.136Z,9.70
2022-12-23T09:57:26.128Z,9.73
2022-12-23T09:58:26.123Z,9.70
2022-12-23T09:59:26.118Z,9.71
2022-12-23T10:00:26.098Z,9.73
2022-12-23T10:01:26.318Z,9.74
2022-12-23T10:02:26.370Z,9.73
2022-12-23T10:03:26.283Z,9.75
2022-12-23T10:04:26.118Z,9.80
2022-12-23T10:05:26.048Z,9.80
2022-12-23T10:06:26.028Z,9.77
2022-12-23T10:07:26.023Z,9.75
2022-12-23T10:08:26.017Z,9.75
2022-12-23T10:09:26.015Z,9.74
2022-12-23T10:10:25.983Z,9.73
2022-12-23T10:11:25.992Z,9.73
2022-12-23T10:12:28.873Z,9.71
2022-12-23T10:13:25.983Z,9.71
2022-12-23T10:14:25.938Z,9.71
2022-12-23T10:15:25.942Z,9.74
2022-12-23T10:16:26.014Z,9.75
2022-12-23T10:17:25.909Z,9.74
2022-12-23T10:18:25.930Z,9.74
2022-12-23T10:19:25.891Z,9.74
2022-12-23T10:20:25.881Z,9.73
2022-12-23T10:21:25.862Z,9.75
2022-12-23T10:22:25.851Z,9.75
2022-12-23T10:23:25.842Z,9.77
2022-12-23T10:24:25.832Z,9.80
2022-12-23T10:25:25.829Z,9.80
2022-12-23T10:26:25.813Z,9.78
2022-12-23T10:27:25.803Z,9.78
2022-12-23T10:28:29.938Z,9.80
2022-12-23T10:29:25.779Z,9.81
2022-12-23T10:31:40.274Z,9.81
2022-12-23T10:32:25.872Z,9.80
2022-12-23T10:33:25.731Z,9.80
2022-12-23T10:34:25.726Z,9.81
2022-12-23T10:35:25.718Z,9.78
2022-12-23T10:36:25.804Z,9.78
2022-12-23T10:37:25.686Z,9.77
2022-12-23T10:38:25.667Z,9.74
2022-12-23T10:39:25.665Z,9.74
2022-12-23T10:40:25.661Z,9.74
2022-12-23T10:41:25.643Z,9.71
2022-12-23T10:42:25.631Z,9.71
2022-12-23T10:43:25.629Z,9.74
2022-12-23T10:44:25.607Z,9.75
2022-12-23T10:45:25.612Z,9.78
2022-12-23T10:46:25.582Z,9.81
2022-12-23T10:47:25.583Z,9.83
2022-12-23T10:48:25.557Z,9.83
2022-12-23T10:49:25.555Z,9.81
2022-12-23T10:50:25.549Z,9.83
2022-12-23T10:51:25.531Z,9.85
2022-12-23T10:52:25.518Z,9.88
2022-12-23T10:53:25.510Z,9.89
2022-12-23T10:54:25.503Z,9.91
2022-12-23T10:55:31.382Z,9.92
2022-12-23T10:56:25.481Z,9.92
2022-12-23T10:57:25.464Z,9.93
2022-12-23T10:58:25.448Z,9.93
2022-12-23T10:59:25.444Z,9.95
2022-12-23T11:00:25.530Z,9.93
2022-12-23T11:01:27.475Z,9.95
2022-12-23T11:02:25.612Z,9.93
2022-12-23T11:03:25.510Z,9.95
2022-12-23T11:04:25.384Z,9.91
2022-12-23T11:05:25.384Z,9.88
2022-12-23T11:06:25.364Z,9.86
2022-12-23T11:08:25.347Z,9.83
2022-12-23T11:09:25.340Z,9.85
2022-12-23T11:10:25.325Z,9.81
2022-12-23T11:11:25.313Z,9.85
2022-12-23T11:12:25.296Z,9.83
2022-12-23T11:13:25.293Z,9.83
2022-12-23T11:14:25.272Z,9.83
2022-12-23T11:15:25.287Z,9.78
2022-12-23T11:16:25.327Z,9.78
2022-12-23T11:17:25.303Z,9.78
2022-12-23T11:18:25.232Z,9.78
2022-12-23T11:19:25.224Z,9.78
2022-12-23T11:20:25.214Z,9.80
2022-12-23T11:21:25.198Z,9.78
2022-12-23T11:22:25.205Z,9.81
2022-12-23T11:23:25.179Z,9.80
2022-12-23T11:24:25.162Z,9.80
2022-12-23T11:25:25.167Z,9.80
2022-12-23T11:26:25.151Z,9.77
2022-12-23T11:27:25.132Z,9.77
2022-12-23T11:28:25.116Z,9.75
2022-12-23T11:29:25.124Z,9.73
2022-12-23T11:30:25.104Z,9.70
2022-12-23T11:31:25.162Z,9.71
2022-12-23T11:32:25.077Z,9.71
2022-12-23T11:33:25.075Z,9.68
2022-12-23T11:34:25.050Z,9.67
2022-12-23T11:35:25.095Z,9.68
2022-12-23T11:36:25.038Z,9.67
2022-12-23T11:37:25.024Z,9.67
2022-12-23T11:38:25.005Z,9.65
2022-12-23T11:39:25.005Z,9.60
2022-12-23T11:40:24.988Z,9.60
2022-12-23T11:41:24.990Z,9.60
2022-12-23T11:42:24.960Z,9.60
2022-12-23T11:43:24.956Z,9.63
2022-12-23T11:44:24.942Z,9.65
2022-12-23T11:45:24.991Z,9.67
2022-12-23T11:46:25.056Z,9.67
2022-12-23T11:47:24.907Z,9.63
2022-12-23T11:48:24.892Z,9.62
2022-12-23T11:49:24.887Z,9.60
2022-12-23T11:50:24.875Z,9.56
2022-12-23T11:51:24.907Z,9.55
2022-12-23T11:52:24.857Z,9.55
2022-12-23T11:53:24.845Z,9.56
2022-12-23T11:54:24.830Z,9.58
2022-12-23T11:55:24.833Z,9.58
2022-12-23T11:56:24.847Z,9.58
2022-12-23T11:57:24.799Z,9.59
2022-12-23T11:58:24.785Z,9.60
2022-12-23T11:59:24.780Z,9.60
2022-12-23T12:00:24.763Z,9.59
2022-12-23T12:01:24.764Z,9.60
2022-12-23T12:02:24.771Z,9.58
2022-12-23T12:03:24.776Z,9.58
2022-12-23T12:04:24.719Z,9.56
2022-12-23T12:05:24.713Z,9.56
2022-12-23T12:06:24.708Z,9.56
2022-12-23T12:07:24.689Z,9.55
2022-12-23T12:08:24.677Z,9.52
2022-12-23T12:09:24.692Z,9.53
2022-12-23T12:10:24.652Z,9.53
2022-12-23T12:11:24.655Z,9.53
2022-12-23T12:12:24.629Z,9.53
2022-12-23T12:13:24.625Z,9.55
2022-12-23T12:14:24.614Z,9.53
2022-12-23T12:15:24.619Z,9.50
2022-12-23T12:16:24.627Z,9.50
2022-12-23T12:17:24.592Z,9.49
2022-12-23T12:18:24.579Z,9.44
2022-12-23T12:19:24.595Z,9.45
2022-12-23T12:20:24.544Z,9.45
2022-12-23T12:21:24.553Z,9.45
2022-12-23T12:22:24.516Z,9.48
2022-12-23T12:23:24.512Z,9.44
2022-12-23T12:24:24.500Z,9.41
2022-12-23T12:25:24.490Z,9.41
2022-12-23T12:26:24.486Z,9.41
2022-12-23T12:27:24.466Z,9.41
2022-12-23T12:28:24.461Z,9.44
2022-12-23T12:29:24.444Z,9.42
2022-12-23T12:30:24.460Z,9.42
2022-12-23T12:31:24.508Z,9.41
2022-12-23T12:32:24.417Z,9.42
2022-12-23T12:33:24.406Z,9.44
2022-12-23T12:34:24.384Z,9.44
2022-12-23T12:35:24.381Z,9.45
2022-12-23T12:36:30.462Z,9.45
2022-12-23T12:37:24.355Z,9.48
2022-12-23T12:38:24.340Z,9.48
2022-12-23T12:39:24.334Z,9.44
2022-12-23T12:40:24.320Z,9.44
2022-12-23T12:41:24.319Z,9.44
2022-12-23T12:42:24.309Z,9.44
2022-12-23T12:43:24.367Z,9.42
2022-12-23T12:44:24.280Z,9.42
2022-12-23T12:45:24.271Z,9.41
2022-12-23T12:46:24.315Z,9.41
2022-12-23T12:48:24.266Z,9.42
2022-12-23T12:49:24.222Z,9.41
2022-12-23T12:50:24.227Z,9.42
2022-12-23T12:51:24.206Z,9.42
2022-12-23T12:52:24.251Z,9.42
2022-12-23T12:53:24.180Z,9.42
2022-12-23T12:54:24.170Z,9.41
2022-12-23T12:55:24.150Z,9.38
2022-12-23T12:56:24.156Z,9.40
2022-12-23T12:57:24.135Z,9.40
2022-12-23T12:58:24.134Z,9.38
2022-12-23T12:59:24.106Z,9.37
2022-12-23T13:00:24.099Z,9.38
2022-12-23T13:01:24.203Z,9.38
2022-12-23T13:02:24.124Z,9.37
2022-12-23T13:03:24.099Z,9.37
2022-12-23T13:04:24.062Z,9.38
2022-12-23T13:05:24.040Z,9.40
2022-12-23T13:06:24.062Z,9.37
2022-12-23T13:07:24.020Z,9.38
2022-12-23T13:08:24.031Z,9.35
2022-12-23T13:09:23.997Z,9.35
2022-12-23T13:10:23.990Z,9.37
2022-12-23T13:11:28.394Z,9.35
2022-12-23T13:12:23.976Z,9.35
2022-12-23T13:13:24.019Z,9.34
2022-12-23T13:14:23.958Z,9.35
2022-12-23T13:15:23.975Z,9.32